sensor_id;sensor_type;location;lat;lon;timestamp;temperature;humidity
12959;DHT22;6544;51.666;6.634;2022-12-10T00:01:33;1.90;99.90
12959;DHT22;6544;51.666;6.634;2022-12-10T00:04:00;2.00;99.90
12959;DHT22;6544;51.666;6.634;2022-12-10T00:06:33;2.00;99.90
12959;DHT22;6544;51.666;6.634;2022-12-10T00:09:02;2.20;99.90
12959;DHT22;6544;51.666;6.634;2022-12-10T00:11:30;2.20;1.00
12959;DHT22;6544;51.666;6.634;2022-12-10T00:13:57;2.10;1.00
12959;DHT22;6544;51.666;6.634;2022-12-10T00:16:26;2.20;1.00
12959;DHT22;6544;51.666;6.634;2022-12-10T00:18:54;2.10;30.90
12959;DHT22;6544;51.666;6.634;2022-12-10T00:21:23;2.00;39.20
12959;DHT22;6544;51.666;6.634;2022-12-10T00:23:51;1.80;99.90
12959;DHT22;6544;51.666;6.634;2022-12-10T00:26:20;1.70;1.00
12959;DHT22;6544;51.666;6.634;2022-12-10T00:28:48;1.80;1.00
12959;DHT22;6544;51.666;6.634;2022-12-10T00:31:17;1.90;1.00
12959;DHT22;6544;51.666;6.634;2022-12-10T00:33:45;2.00;99.90
12959;DHT22;6544;51.666;6.634;2022-12-10T00:36:14;2.00;99.90
12959;DHT22;6544;51.666;6.634;2022-12-10T00:38:42;2.10;99.90
12959;DHT22;6544;51.666;6.634;2022-12-10T00:41:11;2.20;99.90
12959;DHT22;6544;51.666;6.634;2022-12-10T00:43:39;2.00;99.90
12959;DHT22;6544;51.666;6.634;2022-12-10T00:46:07;2.00;1.00
12959;DHT22;6544;51.666;6.634;2022-12-10T00:48:34;2.00;1.00
12959;DHT22;6544;51.666;6.634;2022-12-10T00:51:03;2.10;1.00
12959;DHT22;6544;51.666;6.634;2022-12-10T00:53:32;2.10;99.90
12959;DHT22;6544;51.666;6.634;2022-12-10T00:55:59;1.90;1.00
12959;DHT22;6544;51.666;6.634;2022-12-10T00:58:29;1.90;1.00
12959;DHT22;6544;51.666;6.634;2022-12-10T01:01:06;1.80;1.00
12959;DHT22;6544;51.666;6.634;2022-12-10T01:03:33;1.80;36.20
12959;DHT22;6544;51.666;6.634;2022-12-10T01:06:11;1.80;99.90
12959;DHT22;6544;51.666;6.634;2022-12-10T01:08:39;1.90;99.90
12959;DHT22;6544;51.666;6.634;2022-12-10T01:11:07;2.00;1.00
12959;DHT22;6544;51.666;6.634;2022-12-10T01:13:36;2.00;1.00
12959;DHT22;6544;51.666;6.634;2022-12-10T01:16:05;1.90;99.90
12959;DHT22;6544;51.666;6.634;2022-12-10T01:18:33;1.90;1.00
12959;DHT22;6544;51.666;6.634;2022-12-10T01:21:01;2.00;99.90
12959;DHT22;6544;51.666;6.634;2022-12-10T01:23:28;2.00;99.90
12959;DHT22;6544;51.666;6.634;2022-12-10T01:25:59;1.80;99.90
12959;DHT22;6544;51.666;6.634;2022-12-10T01:28:28;1.80;99.90
12959;DHT22;6544;51.666;6.634;2022-12-10T01:31:00;1.70;99.90
12959;DHT22;6544;51.666;6.634;2022-12-10T01:33:26;1.70;99.90
12959;DHT22;6544;51.666;6.634;2022-12-10T01:35:53;1.60;99.90
12959;DHT22;6544;51.666;6.634;2022-12-10T01:38:20;1.50;99.90
12959;DHT22;6544;51.666;6.634;2022-12-10T01:40:48;1.50;1.00
12959;DHT22;6544;51.666;6.634;2022-12-10T01:43:15;1.60;99.90
12959;DHT22;6544;51.666;6.634;2022-12-10T01:45:42;1.80;99.90
12959;DHT22;6544;51.666;6.634;2022-12-10T01:48:10;1.90;37.30
12959;DHT22;6544;51.666;6.634;2022-12-10T01:50:37;1.90;1.00
12959;DHT22;6544;51.666;6.634;2022-12-10T01:53:04;1.90;1.00
12959;DHT22;6544;51.666;6.634;2022-12-10T01:55:39;1.90;1.00
12959;DHT22;6544;51.666;6.634;2022-12-10T01:58:06;1.90;1.00
12959;DHT22;6544;51.666;6.634;2022-12-10T02:00:36;1.90;1.00
12959;DHT22;6544;51.666;6.634;2022-12-10T02:03:10;1.90;1.00
12959;DHT22;6544;51.666;6.634;2022-12-10T02:05:43;1.80;1.00
12959;DHT22;6544;51.666;6.634;2022-12-10T02:08:13;1.80;1.00
12959;DHT22;6544;51.666;6.634;2022-12-10T02:10:54;1.60;1.00
12959;DHT22;6544;51.666;6.634;2022-12-10T02:13:25;1.70;1.00
12959;DHT22;6544;51.666;6.634;2022-12-10T02:15:59;1.60;1.00
12959;DHT22;6544;51.666;6.634;2022-12-10T02:18:30;1.50;1.00
12959;DHT22;6544;51.666;6.634;2022-12-10T02:21:03;1.60;1.00
12959;DHT22;6544;51.666;6.634;2022-12-10T02:23:36;1.60;1.00
12959;DHT22;6544;51.666;6.634;2022-12-10T02:26:09;1.60;1.00
12959;DHT22;6544;51.666;6.634;2022-12-10T02:28:51;1.60;1.00
12959;DHT22;6544;51.666;6.634;2022-12-10T02:31:25;1.60;1.00
12959;DHT22;6544;51.666;6.634;2022-12-10T02:33:56;1.60;1.00
12959;DHT22;6544;51.666;6.634;2022-12-10T02:36:27;1.60;1.00
12959;DHT22;6544;51.666;6.634;2022-12-10T02:38:56;1.50;1.00
12959;DHT22;6544;51.666;6.634;2022-12-10T02:41:28;1.50;1.00
12959;DHT22;6544;51.666;6.634;2022-12-10T02:43:58;1.50;1.00
12959;DHT22;6544;51.666;6.634;2022-12-10T02:46:28;1.50;1.00
12959;DHT22;6544;51.666;6.634;2022-12-10T02:48:56;1.40;1.00
12959;DHT22;6544;51.666;6.634;2022-12-10T02:51:24;1.40;1.00
12959;DHT22;6544;51.666;6.634;2022-12-10T02:53:59;1.30;1.00
12959;DHT22;6544;51.666;6.634;2022-12-10T02:56:33;1.20;1.00
12959;DHT22;6544;51.666;6.634;2022-12-10T02:59:06;1.00;1.00
12959;DHT22;6544;51.666;6.634;2022-12-10T03:01:43;1.00;1.00
12959;DHT22;6544;51.666;6.634;2022-12-10T03:04:16;1.00;1.00
12959;DHT22;6544;51.666;6.634;2022-12-10T03:06:47;1.10;1.00
12959;DHT22;6544;51.666;6.634;2022-12-10T03:09:22;1.20;1.00
12959;DHT22;6544;51.666;6.634;2022-12-10T03:11:50;1.20;1.00
12959;DHT22;6544;51.666;6.634;2022-12-10T03:14:22;1.20;1.00
12959;DHT22;6544;51.666;6.634;2022-12-10T03:16:55;1.10;1.00
12959;DHT22;6544;51.666;6.634;2022-12-10T03:19:26;1.10;1.00
12959;DHT22;6544;51.666;6.634;2022-12-10T03:21:55;1.10;1.00
12959;DHT22;6544;51.666;6.634;2022-12-10T03:24:24;1.10;1.00
12959;DHT22;6544;51.666;6.634;2022-12-10T03:26:52;1.10;1.00
12959;DHT22;6544;51.666;6.634;2022-12-10T03:29:22;1.10;1.00
12959;DHT22;6544;51.666;6.634;2022-12-10T03:31:52;1.00;1.00
12959;DHT22;6544;51.666;6.634;2022-12-10T03:34:20;1.00;1.00
12959;DHT22;6544;51.666;6.634;2022-12-10T03:36:47;0.90;1.00
12959;DHT22;6544;51.666;6.634;2022-12-10T03:39:15;0.90;1.00
12959;DHT22;6544;51.666;6.634;2022-12-10T03:41:43;0.80;1.00
12959;DHT22;6544;51.666;6.634;2022-12-10T03:44:10;0.70;1.00
12959;DHT22;6544;51.666;6.634;2022-12-10T03:46:37;0.70;1.00
12959;DHT22;6544;51.666;6.634;2022-12-10T03:49:06;0.60;1.00
12959;DHT22;6544;51.666;6.634;2022-12-10T03:51:32;0.60;1.00
12959;DHT22;6544;51.666;6.634;2022-12-10T03:53:59;0.60;1.00
12959;DHT22;6544;51.666;6.634;2022-12-10T03:56:26;0.60;1.00
12959;DHT22;6544;51.666;6.634;2022-12-10T03:58:53;0.60;1.00
12959;DHT22;6544;51.666;6.634;2022-12-10T04:01:20;0.60;1.00
12959;DHT22;6544;51.666;6.634;2022-12-10T04:03:47;0.60;1.00
12959;DHT22;6544;51.666;6.634;2022-12-10T04:06:17;0.60;1.00
12959;DHT22;6544;51.666;6.634;2022-12-10T04:08:45;0.60;1.00
12959;DHT22;6544;51.666;6.634;2022-12-10T04:11:13;0.50;1.00
12959;DHT22;6544;51.666;6.634;2022-12-10T04:13:41;0.50;1.00
12959;DHT22;6544;51.666;6.634;2022-12-10T04:16:26;0.40;1.00
12959;DHT22;6544;51.666;6.634;2022-12-10T04:18:53;0.40;38.20
12959;DHT22;6544;51.666;6.634;2022-12-10T04:21:21;0.40;6.60
12959;DHT22;6544;51.666;6.634;2022-12-10T04:24:07;0.30;59.60
12959;DHT22;6544;51.666;6.634;2022-12-10T04:26:52;0.30;99.90
12959;DHT22;6544;51.666;6.634;2022-12-10T04:29:19;0.20;99.90
12959;DHT22;6544;51.666;6.634;2022-12-10T04:31:47;0.20;99.90
12959;DHT22;6544;51.666;6.634;2022-12-10T04:34:14;0.20;99.90
12959;DHT22;6544;51.666;6.634;2022-12-10T04:36:42;0.30;99.90
12959;DHT22;6544;51.666;6.634;2022-12-10T04:39:09;0.30;99.90
12959;DHT22;6544;51.666;6.634;2022-12-10T04:41:37;0.30;99.90
12959;DHT22;6544;51.666;6.634;2022-12-10T04:44:05;0.30;99.90
12959;DHT22;6544;51.666;6.634;2022-12-10T04:46:32;0.40;99.90
12959;DHT22;6544;51.666;6.634;2022-12-10T04:48:59;0.50;99.90
12959;DHT22;6544;51.666;6.634;2022-12-10T04:51:26;0.50;99.90
12959;DHT22;6544;51.666;6.634;2022-12-10T04:53:54;0.50;99.90
12959;DHT22;6544;51.666;6.634;2022-12-10T04:56:21;0.50;99.90
12959;DHT22;6544;51.666;6.634;2022-12-10T04:58:48;0.50;99.90
12959;DHT22;6544;51.666;6.634;2022-12-10T05:01:15;0.50;99.90
12959;DHT22;6544;51.666;6.634;2022-12-10T05:03:43;0.50;99.90
12959;DHT22;6544;51.666;6.634;2022-12-10T05:06:13;0.50;99.90
12959;DHT22;6544;51.666;6.634;2022-12-10T05:08:40;0.60;99.90
12959;DHT22;6544;51.666;6.634;2022-12-10T05:11:10;0.60;99.90
12959;DHT22;6544;51.666;6.634;2022-12-10T05:13:38;0.50;99.90
12959;DHT22;6544;51.666;6.634;2022-12-10T05:16:07;0.40;99.90
12959;DHT22;6544;51.666;6.634;2022-12-10T05:18:35;0.40;99.90
12959;DHT22;6544;51.666;6.634;2022-12-10T05:21:04;0.50;99.90
12959;DHT22;6544;51.666;6.634;2022-12-10T05:23:32;0.50;99.90
12959;DHT22;6544;51.666;6.634;2022-12-10T05:25:59;0.50;99.90
12959;DHT22;6544;51.666;6.634;2022-12-10T05:28:29;0.50;99.90
12959;DHT22;6544;51.666;6.634;2022-12-10T05:30:56;0.60;99.90
12959;DHT22;6544;51.666;6.634;2022-12-10T05:33:24;0.60;99.90
12959;DHT22;6544;51.666;6.634;2022-12-10T05:35:53;0.60;99.90
12959;DHT22;6544;51.666;6.634;2022-12-10T05:38:20;0.60;99.90
12959;DHT22;6544;51.666;6.634;2022-12-10T05:40:47;0.50;99.90
12959;DHT22;6544;51.666;6.634;2022-12-10T05:43:14;0.50;99.90
12959;DHT22;6544;51.666;6.634;2022-12-10T05:45:42;0.40;99.90
12959;DHT22;6544;51.666;6.634;2022-12-10T05:48:09;0.50;99.90
12959;DHT22;6544;51.666;6.634;2022-12-10T05:50:36;0.50;99.90
12959;DHT22;6544;51.666;6.634;2022-12-10T05:53:04;0.60;99.90
12959;DHT22;6544;51.666;6.634;2022-12-10T05:55:31;0.60;64.20
12959;DHT22;6544;51.666;6.634;2022-12-10T05:57:58;0.50;94.10
12959;DHT22;6544;51.666;6.634;2022-12-10T06:00:25;0.50;99.90
12959;DHT22;6544;51.666;6.634;2022-12-10T06:02:54;0.50;99.90
12959;DHT22;6544;51.666;6.634;2022-12-10T06:05:21;0.50;99.90
12959;DHT22;6544;51.666;6.634;2022-12-10T06:07:48;0.50;99.90
12959;DHT22;6544;51.666;6.634;2022-12-10T06:10:15;0.50;99.90
12959;DHT22;6544;51.666;6.634;2022-12-10T06:12:42;0.50;99.90
12959;DHT22;6544;51.666;6.634;2022-12-10T06:15:10;0.40;99.90
12959;DHT22;6544;51.666;6.634;2022-12-10T06:17:37;0.40;99.90
12959;DHT22;6544;51.666;6.634;2022-12-10T06:20:06;0.40;99.90
12959;DHT22;6544;51.666;6.634;2022-12-10T06:22:33;0.40;99.90
12959;DHT22;6544;51.666;6.634;2022-12-10T06:25:00;0.30;99.90
12959;DHT22;6544;51.666;6.634;2022-12-10T06:27:29;0.40;1.00
12959;DHT22;6544;51.666;6.634;2022-12-10T06:29:56;0.40;1.00
12959;DHT22;6544;51.666;6.634;2022-12-10T06:32:26;0.30;1.00
12959;DHT22;6544;51.666;6.634;2022-12-10T06:34:53;0.30;1.00
12959;DHT22;6544;51.666;6.634;2022-12-10T06:37:21;0.30;1.00
12959;DHT22;6544;51.666;6.634;2022-12-10T06:39:50;0.30;1.00
12959;DHT22;6544;51.666;6.634;2022-12-10T06:42:17;0.30;99.90
12959;DHT22;6544;51.666;6.634;2022-12-10T06:44:43;0.40;1.00
12959;DHT22;6544;51.666;6.634;2022-12-10T06:47:10;0.30;1.00
12959;DHT22;6544;51.666;6.634;2022-12-10T06:49:37;0.30;1.00
12959;DHT22;6544;51.666;6.634;2022-12-10T06:52:04;0.20;1.00
12959;DHT22;6544;51.666;6.634;2022-12-10T06:54:32;0.00;67.00
12959;DHT22;6544;51.666;6.634;2022-12-10T06:56:59;0.00;1.00
12959;DHT22;6544;51.666;6.634;2022-12-10T06:59:26;0.00;1.00
12959;DHT22;6544;51.666;6.634;2022-12-10T07:01:53;0.10;72.10
12959;DHT22;6544;51.666;6.634;2022-12-10T07:04:20;0.00;1.00
12959;DHT22;6544;51.666;6.634;2022-12-10T07:06:47;0.00;1.00
12959;DHT22;6544;51.666;6.634;2022-12-10T07:09:14;0.10;99.90
12959;DHT22;6544;51.666;6.634;2022-12-10T07:11:45;0.00;99.90
12959;DHT22;6544;51.666;6.634;2022-12-10T07:14:14;-0.10;29.10
12959;DHT22;6544;51.666;6.634;2022-12-10T07:16:42;-0.30;1.00
12959;DHT22;6544;51.666;6.634;2022-12-10T07:19:10;-0.30;1.00
12959;DHT22;6544;51.666;6.634;2022-12-10T07:21:40;-0.30;1.00
12959;DHT22;6544;51.666;6.634;2022-12-10T07:24:12;-0.40;99.90
12959;DHT22;6544;51.666;6.634;2022-12-10T07:26:40;-0.30;99.90
12959;DHT22;6544;51.666;6.634;2022-12-10T07:29:12;-0.30;1.00
12959;DHT22;6544;51.666;6.634;2022-12-10T07:31:40;-0.20;99.90
12959;DHT22;6544;51.666;6.634;2022-12-10T07:34:07;-0.30;1.00
12959;DHT22;6544;51.666;6.634;2022-12-10T07:36:33;-0.40;1.00
12959;DHT22;6544;51.666;6.634;2022-12-10T07:39:01;-0.40;1.00
12959;DHT22;6544;51.666;6.634;2022-12-10T07:41:28;-0.40;1.00
12959;DHT22;6544;51.666;6.634;2022-12-10T07:43:55;-0.40;99.90
12959;DHT22;6544;51.666;6.634;2022-12-10T07:46:26;-0.30;99.90
12959;DHT22;6544;51.666;6.634;2022-12-10T07:48:53;-0.20;1.00
12959;DHT22;6544;51.666;6.634;2022-12-10T07:51:21;-0.20;99.90
12959;DHT22;6544;51.666;6.634;2022-12-10T07:53:51;-0.20;1.00
12959;DHT22;6544;51.666;6.634;2022-12-10T07:56:19;-0.20;1.00
12959;DHT22;6544;51.666;6.634;2022-12-10T07:58:47;-0.10;1.00
12959;DHT22;6544;51.666;6.634;2022-12-10T08:01:20;-0.10;1.00
12959;DHT22;6544;51.666;6.634;2022-12-10T08:03:49;-0.10;1.00
12959;DHT22;6544;51.666;6.634;2022-12-10T08:06:18;-0.20;99.90
12959;DHT22;6544;51.666;6.634;2022-12-10T08:08:47;-0.20;1.00
12959;DHT22;6544;51.666;6.634;2022-12-10T08:11:15;-0.10;37.10
12959;DHT22;6544;51.666;6.634;2022-12-10T08:13:42;-0.10;99.90
12959;DHT22;6544;51.666;6.634;2022-12-10T08:16:12;0.00;99.90
12959;DHT22;6544;51.666;6.634;2022-12-10T08:18:39;0.00;99.00
12959;DHT22;6544;51.666;6.634;2022-12-10T08:21:09;0.00;1.00
12959;DHT22;6544;51.666;6.634;2022-12-10T08:23:37;0.00;99.90
12959;DHT22;6544;51.666;6.634;2022-12-10T08:26:04;0.00;1.00
12959;DHT22;6544;51.666;6.634;2022-12-10T08:28:31;0.10;99.90
12959;DHT22;6544;51.666;6.634;2022-12-10T08:30:58;0.10;1.00
12959;DHT22;6544;51.666;6.634;2022-12-10T08:33:25;0.00;99.90
12959;DHT22;6544;51.666;6.634;2022-12-10T08:35:52;-0.10;99.90
12959;DHT22;6544;51.666;6.634;2022-12-10T08:38:20;0.00;1.00
12959;DHT22;6544;51.666;6.634;2022-12-10T08:40:47;0.10;1.00
12959;DHT22;6544;51.666;6.634;2022-12-10T08:43:14;0.10;99.90
12959;DHT22;6544;51.666;6.634;2022-12-10T08:45:41;-0.10;1.00
12959;DHT22;6544;51.666;6.634;2022-12-10T08:48:08;0.00;1.00
12959;DHT22;6544;51.666;6.634;2022-12-10T08:50:36;0.00;1.00
12959;DHT22;6544;51.666;6.634;2022-12-10T08:53:03;-0.10;99.90
12959;DHT22;6544;51.666;6.634;2022-12-10T08:55:31;0.00;1.00
12959;DHT22;6544;51.666;6.634;2022-12-10T08:57:58;0.00;1.00
12959;DHT22;6544;51.666;6.634;2022-12-10T09:00:26;-0.10;1.00
12959;DHT22;6544;51.666;6.634;2022-12-10T09:02:53;-0.10;1.00
12959;DHT22;6544;51.666;6.634;2022-12-10T09:05:22;-0.20;99.90
12959;DHT22;6544;51.666;6.634;2022-12-10T09:07:49;-0.30;99.90
12959;DHT22;6544;51.666;6.634;2022-12-10T09:10:16;-0.30;1.00
12959;DHT22;6544;51.666;6.634;2022-12-10T09:12:44;-0.30;1.00
12959;DHT22;6544;51.666;6.634;2022-12-10T09:15:11;-0.20;99.90
12959;DHT22;6544;51.666;6.634;2022-12-10T09:17:38;-0.20;99.90
12959;DHT22;6544;51.666;6.634;2022-12-10T09:20:06;-0.10;99.90
12959;DHT22;6544;51.666;6.634;2022-12-10T09:22:33;-0.20;99.90
12959;DHT22;6544;51.666;6.634;2022-12-10T09:25:03;-0.10;99.90
12959;DHT22;6544;51.666;6.634;2022-12-10T09:27:30;-0.10;99.90
12959;DHT22;6544;51.666;6.634;2022-12-10T09:29:58;-0.10;99.90
12959;DHT22;6544;51.666;6.634;2022-12-10T09:32:26;-0.10;99.90
12959;DHT22;6544;51.666;6.634;2022-12-10T09:34:53;0.00;99.90
12959;DHT22;6544;51.666;6.634;2022-12-10T09:37:20;0.00;99.90
12959;DHT22;6544;51.666;6.634;2022-12-10T09:39:47;-0.10;49.50
12959;DHT22;6544;51.666;6.634;2022-12-10T09:42:25;-0.10;53.10
12959;DHT22;6544;51.666;6.634;2022-12-10T09:45:02;-0.10;99.90
12959;DHT22;6544;51.666;6.634;2022-12-10T09:47:35;0.00;99.90
12959;DHT22;6544;51.666;6.634;2022-12-10T09:50:11;0.00;99.90
12959;DHT22;6544;51.666;6.634;2022-12-10T09:52:41;-0.10;99.90
12959;DHT22;6544;51.666;6.634;2022-12-10T09:55:14;0.00;99.90
12959;DHT22;6544;51.666;6.634;2022-12-10T09:57:43;0.10;99.90
12959;DHT22;6544;51.666;6.634;2022-12-10T10:00:20;0.20;99.90
12959;DHT22;6544;51.666;6.634;2022-12-10T10:02:48;0.30;99.90
12959;DHT22;6544;51.666;6.634;2022-12-10T10:05:20;0.30;1.00
12959;DHT22;6544;51.666;6.634;2022-12-10T10:07:51;0.20;1.00
12959;DHT22;6544;51.666;6.634;2022-12-10T10:10:26;0.30;1.00
12959;DHT22;6544;51.666;6.634;2022-12-10T10:12:55;0.30;1.00
12959;DHT22;6544;51.666;6.634;2022-12-10T10:15:31;0.30;1.00
12959;DHT22;6544;51.666;6.634;2022-12-10T10:18:02;0.30;1.00
12959;DHT22;6544;51.666;6.634;2022-12-10T10:20:31;0.40;99.90
12959;DHT22;6544;51.666;6.634;2022-12-10T10:22:59;0.40;99.90
12959;DHT22;6544;51.666;6.634;2022-12-10T10:25:27;0.40;99.90
12959;DHT22;6544;51.666;6.634;2022-12-10T10:27:54;0.40;99.90
12959;DHT22;6544;51.666;6.634;2022-12-10T10:30:22;0.40;1.00
12959;DHT22;6544;51.666;6.634;2022-12-10T10:32:52;0.40;1.00
12959;DHT22;6544;51.666;6.634;2022-12-10T10:35:28;0.40;99.90
12959;DHT22;6544;51.666;6.634;2022-12-10T10:38:00;0.50;1.00
12959;DHT22;6544;51.666;6.634;2022-12-10T10:40:30;0.60;1.00
12959;DHT22;6544;51.666;6.634;2022-12-10T10:42:59;0.50;2.50
12959;DHT22;6544;51.666;6.634;2022-12-10T10:45:37;0.50;1.00
12959;DHT22;6544;51.666;6.634;2022-12-10T10:48:10;0.40;99.90
12959;DHT22;6544;51.666;6.634;2022-12-10T10:50:40;0.40;1.00
12959;DHT22;6544;51.666;6.634;2022-12-10T10:53:30;0.50;99.90
12959;DHT22;6544;51.666;6.634;2022-12-10T10:56:04;0.50;99.90
12959;DHT22;6544;51.666;6.634;2022-12-10T10:58:32;0.50;90.00
12959;DHT22;6544;51.666;6.634;2022-12-10T11:01:01;0.50;1.00
12959;DHT22;6544;51.666;6.634;2022-12-10T11:03:35;0.50;1.00
12959;DHT22;6544;51.666;6.634;2022-12-10T11:06:06;0.60;1.00
12959;DHT22;6544;51.666;6.634;2022-12-10T11:08:35;0.50;1.00
12959;DHT22;6544;51.666;6.634;2022-12-10T11:11:06;0.50;1.00
12959;DHT22;6544;51.666;6.634;2022-12-10T11:13:37;0.60;1.00
12959;DHT22;6544;51.666;6.634;2022-12-10T11:16:11;0.60;99.90
12959;DHT22;6544;51.666;6.634;2022-12-10T11:18:52;0.60;1.00
12959;DHT22;6544;51.666;6.634;2022-12-10T11:21:20;0.60;1.00
12959;DHT22;6544;51.666;6.634;2022-12-10T11:23:53;0.60;99.90
12959;DHT22;6544;51.666;6.634;2022-12-10T11:26:40;0.50;99.90
12959;DHT22;6544;51.666;6.634;2022-12-10T11:29:19;0.60;1.00
12959;DHT22;6544;51.666;6.634;2022-12-10T11:32:00;0.70;99.90
12959;DHT22;6544;51.666;6.634;2022-12-10T11:34:38;0.80;70.40
12959;DHT22;6544;51.666;6.634;2022-12-10T11:37:15;0.80;1.00
12959;DHT22;6544;51.666;6.634;2022-12-10T11:39:56;0.80;99.90
12959;DHT22;6544;51.666;6.634;2022-12-10T11:42:34;0.90;99.90
12959;DHT22;6544;51.666;6.634;2022-12-10T11:45:09;1.00;99.90
12959;DHT22;6544;51.666;6.634;2022-12-10T11:47:51;1.00;1.00
12959;DHT22;6544;51.666;6.634;2022-12-10T11:50:26;1.00;1.00
12959;DHT22;6544;51.666;6.634;2022-12-10T11:53:08;1.10;1.00
12959;DHT22;6544;51.666;6.634;2022-12-10T11:55:48;1.10;1.00
12959;DHT22;6544;51.666;6.634;2022-12-10T11:58:30;1.00;1.00
12959;DHT22;6544;51.666;6.634;2022-12-10T12:01:09;1.10;40.60
12959;DHT22;6544;51.666;6.634;2022-12-10T12:03:59;1.10;99.90
12959;DHT22;6544;51.666;6.634;2022-12-10T12:06:45;1.10;1.00
12959;DHT22;6544;51.666;6.634;2022-12-10T12:09:22;1.20;1.00
12959;DHT22;6544;51.666;6.634;2022-12-10T12:12:04;1.30;99.90
12959;DHT22;6544;51.666;6.634;2022-12-10T12:14:39;1.30;99.90
12959;DHT22;6544;51.666;6.634;2022-12-10T12:17:11;1.40;1.00
12959;DHT22;6544;51.666;6.634;2022-12-10T12:19:44;1.40;99.90
12959;DHT22;6544;51.666;6.634;2022-12-10T12:22:23;1.40;99.90
12959;DHT22;6544;51.666;6.634;2022-12-10T12:24:53;1.60;99.90
12959;DHT22;6544;51.666;6.634;2022-12-10T12:27:27;1.60;1.00
12959;DHT22;6544;51.666;6.634;2022-12-10T12:30:02;1.60;99.90
12959;DHT22;6544;51.666;6.634;2022-12-10T12:32:35;1.60;1.00
12959;DHT22;6544;51.666;6.634;2022-12-10T12:35:09;1.60;99.90
12959;DHT22;6544;51.666;6.634;2022-12-10T12:37:42;1.60;99.90
12959;DHT22;6544;51.666;6.634;2022-12-10T12:40:14;1.60;99.90
12959;DHT22;6544;51.666;6.634;2022-12-10T12:42:48;1.60;1.00
12959;DHT22;6544;51.666;6.634;2022-12-10T12:45:20;1.50;1.00
12959;DHT22;6544;51.666;6.634;2022-12-10T12:47:50;1.40;1.00
12959;DHT22;6544;51.666;6.634;2022-12-10T12:50:26;1.40;1.00
12959;DHT22;6544;51.666;6.634;2022-12-10T12:52:57;1.30;99.90
12959;DHT22;6544;51.666;6.634;2022-12-10T12:55:31;1.30;99.90
12959;DHT22;6544;51.666;6.634;2022-12-10T12:58:20;1.30;1.00
12959;DHT22;6544;51.666;6.634;2022-12-10T13:00:51;1.30;1.00
12959;DHT22;6544;51.666;6.634;2022-12-10T13:03:29;1.40;99.90
12959;DHT22;6544;51.666;6.634;2022-12-10T13:06:12;1.40;1.00
12959;DHT22;6544;51.666;6.634;2022-12-10T13:08:45;1.40;1.00
12959;DHT22;6544;51.666;6.634;2022-12-10T13:11:18;1.40;1.00
12959;DHT22;6544;51.666;6.634;2022-12-10T13:14:15;1.40;1.00
12959;DHT22;6544;51.666;6.634;2022-12-10T13:16:58;1.50;1.00
12959;DHT22;6544;51.666;6.634;2022-12-10T13:19:28;1.50;1.00
12959;DHT22;6544;51.666;6.634;2022-12-10T13:22:07;1.50;99.90
12959;DHT22;6544;51.666;6.634;2022-12-10T13:27:54;1.40;99.90
12959;DHT22;6544;51.666;6.634;2022-12-10T13:30:34;1.40;1.00
12959;DHT22;6544;51.666;6.634;2022-12-10T13:33:15;1.50;1.00
12959;DHT22;6544;51.666;6.634;2022-12-10T13:35:50;1.50;1.00
12959;DHT22;6544;51.666;6.634;2022-12-10T13:38:23;1.50;1.00
12959;DHT22;6544;51.666;6.634;2022-12-10T13:41:02;1.60;1.00
12959;DHT22;6544;51.666;6.634;2022-12-10T13:43:58;1.60;1.00
12959;DHT22;6544;51.666;6.634;2022-12-10T13:47:21;1.60;1.00
12959;DHT22;6544;51.666;6.634;2022-12-10T13:49:53;1.50;99.90
12959;DHT22;6544;51.666;6.634;2022-12-10T13:52:25;1.50;99.90
12959;DHT22;6544;51.666;6.634;2022-12-10T13:55:12;1.60;99.90
12959;DHT22;6544;51.666;6.634;2022-12-10T14:00:49;1.50;99.90
12959;DHT22;6544;51.666;6.634;2022-12-10T14:03:37;1.50;99.90
12959;DHT22;6544;51.666;6.634;2022-12-10T14:06:13;1.60;1.00
12959;DHT22;6544;51.666;6.634;2022-12-10T14:08:56;1.60;1.00
12959;DHT22;6544;51.666;6.634;2022-12-10T14:11:28;1.50;99.90
12959;DHT22;6544;51.666;6.634;2022-12-10T14:13:57;1.50;99.90
12959;DHT22;6544;51.666;6.634;2022-12-10T14:16:29;1.50;1.00
12959;DHT22;6544;51.666;6.634;2022-12-10T14:18:59;1.60;1.00
12959;DHT22;6544;51.666;6.634;2022-12-10T14:21:27;1.70;1.00
12959;DHT22;6544;51.666;6.634;2022-12-10T14:23:58;1.70;1.00
12959;DHT22;6544;51.666;6.634;2022-12-10T14:26:27;1.70;99.90
12959;DHT22;6544;51.666;6.634;2022-12-10T14:28:55;1.60;1.00
12959;DHT22;6544;51.666;6.634;2022-12-10T14:31:28;1.50;75.70
12959;DHT22;6544;51.666;6.634;2022-12-10T14:34:00;1.50;99.90
12959;DHT22;6544;51.666;6.634;2022-12-10T14:36:29;1.40;1.00
12959;DHT22;6544;51.666;6.634;2022-12-10T14:38:57;1.40;1.00
12959;DHT22;6544;51.666;6.634;2022-12-10T14:41:27;1.60;99.90
12959;DHT22;6544;51.666;6.634;2022-12-10T14:43:57;1.60;99.90
12959;DHT22;6544;51.666;6.634;2022-12-10T14:46:30;1.60;99.90
12959;DHT22;6544;51.666;6.634;2022-12-10T14:48:58;1.60;99.90
12959;DHT22;6544;51.666;6.634;2022-12-10T14:51:30;1.60;99.90
12959;DHT22;6544;51.666;6.634;2022-12-10T14:53:58;1.70;1.00
12959;DHT22;6544;51.666;6.634;2022-12-10T14:56:27;1.70;99.90
12959;DHT22;6544;51.666;6.634;2022-12-10T14:59:02;1.80;1.00
12959;DHT22;6544;51.666;6.634;2022-12-10T15:01:35;1.70;99.90
12959;DHT22;6544;51.666;6.634;2022-12-10T15:04:04;1.70;1.00
12959;DHT22;6544;51.666;6.634;2022-12-10T15:06:34;1.60;99.90
12959;DHT22;6544;51.666;6.634;2022-12-10T15:09:02;1.60;99.90
12959;DHT22;6544;51.666;6.634;2022-12-10T15:11:31;1.60;99.90
12959;DHT22;6544;51.666;6.634;2022-12-10T15:13:59;1.70;99.90
12959;DHT22;6544;51.666;6.634;2022-12-10T15:16:30;1.60;99.90
12959;DHT22;6544;51.666;6.634;2022-12-10T15:19:13;1.50;99.90
12959;DHT22;6544;51.666;6.634;2022-12-10T15:21:42;1.50;1.00
12959;DHT22;6544;51.666;6.634;2022-12-10T15:24:16;1.50;67.10
12959;DHT22;6544;51.666;6.634;2022-12-10T15:26:44;1.60;1.00
12959;DHT22;6544;51.666;6.634;2022-12-10T15:29:32;1.70;1.00
12959;DHT22;6544;51.666;6.634;2022-12-10T15:32:03;1.70;99.90
12959;DHT22;6544;51.666;6.634;2022-12-10T15:34:38;1.70;99.90
12959;DHT22;6544;51.666;6.634;2022-12-10T15:37:05;1.70;99.90
12959;DHT22;6544;51.666;6.634;2022-12-10T15:39:46;1.60;99.90
12959;DHT22;6544;51.666;6.634;2022-12-10T15:42:37;1.70;1.00
12959;DHT22;6544;51.666;6.634;2022-12-10T15:45:22;1.70;99.90
12959;DHT22;6544;51.666;6.634;2022-12-10T15:47:51;1.80;1.00
12959;DHT22;6544;51.666;6.634;2022-12-10T15:50:20;1.80;99.90
12959;DHT22;6544;51.666;6.634;2022-12-10T15:52:47;1.80;99.90
12959;DHT22;6544;51.666;6.634;2022-12-10T15:55:14;1.80;1.00
12959;DHT22;6544;51.666;6.634;2022-12-10T15:57:42;1.80;1.00
12959;DHT22;6544;51.666;6.634;2022-12-10T16:00:17;1.70;1.00
12959;DHT22;6544;51.666;6.634;2022-12-10T16:02:47;1.80;1.00
12959;DHT22;6544;51.666;6.634;2022-12-10T16:05:16;1.80;1.00
12959;DHT22;6544;51.666;6.634;2022-12-10T16:07:47;1.70;1.00
12959;DHT22;6544;51.666;6.634;2022-12-10T16:10:16;1.70;1.00
12959;DHT22;6544;51.666;6.634;2022-12-10T16:12:45;1.70;82.80
12959;DHT22;6544;51.666;6.634;2022-12-10T16:15:18;1.70;1.00
12959;DHT22;6544;51.666;6.634;2022-12-10T16:17:46;1.60;99.90
12959;DHT22;6544;51.666;6.634;2022-12-10T16:20:19;1.60;99.90
12959;DHT22;6544;51.666;6.634;2022-12-10T16:22:47;1.60;99.90
12959;DHT22;6544;51.666;6.634;2022-12-10T16:25:15;1.60;1.00
12959;DHT22;6544;51.666;6.634;2022-12-10T16:27:42;1.60;1.00
12959;DHT22;6544;51.666;6.634;2022-12-10T16:30:14;1.50;99.90
12959;DHT22;6544;51.666;6.634;2022-12-10T16:32:42;1.60;1.00
12959;DHT22;6544;51.666;6.634;2022-12-10T16:35:09;1.60;1.00
12959;DHT22;6544;51.666;6.634;2022-12-10T16:37:40;1.60;1.00